createdAt,value
2019-01-05T00:00:24.886Z,63.14
2019-01-05T00:03:11.292Z,63.14
2019-01-05T00:06:08.052Z,63.18
2019-01-05T00:08:58.627Z,63.17
2019-01-05T00:11:47.812Z,63.20
2019-01-05T00:14:53.440Z,63.14
2019-01-05T00:17:47.550Z,63.16
2019-01-05T00:20:47.814Z,63.18
2019-01-05T00:23:45.543Z,63.23
2019-01-05T00:26:39.991Z,63.28
2019-01-05T00:29:29.888Z,63.29
2019-01-05T00:32:43.713Z,63.30
2019-01-05T00:36:00.433Z,63.26
2019-01-05T00:39:01.704Z,63.23
2019-01-05T00:42:02.896Z,63.24
2019-01-05T00:45:01.544Z,63.34
2019-01-05T00:47:53.867Z,63.43
2019-01-05T00:50:57.121Z,63.41
2019-01-05T00:53:46.867Z,63.41
2019-01-05T00:56:50.904Z,63.36
2019-01-05T00:59:57.848Z,63.38
2019-01-05T01:02:58.340Z,63.36
2019-01-05T01:05:47.868Z,63.35
2019-01-05T01:08:38.408Z,63.39
2019-01-05T01:11:27.846Z,63.40
2019-01-05T01:14:21.791Z,63.41
2019-01-05T01:17:21.780Z,63.44
2019-01-05T01:20:20.724Z,63.41
2019-01-05T01:23:10.897Z,63.42
2019-01-05T01:26:05.257Z,63.39
2019-01-05T01:28:57.343Z,63.36
2019-01-05T01:32:00.369Z,63.35
2019-01-05T01:35:00.334Z,63.31
2019-01-05T01:39:07.989Z,63.31
2019-01-05T01:41:59.574Z,63.28
2019-01-05T01:45:05.577Z,63.16
2019-01-05T01:48:11.255Z,63.17
2019-01-05T01:51:02.325Z,63.16
2019-01-05T01:53:51.531Z,63.20
2019-01-05T01:57:00.643Z,63.24
2019-01-05T02:00:08.715Z,63.27
2019-01-05T02:03:05.686Z,63.24
2019-01-05T02:06:01.617Z,63.26
2019-01-05T02:09:08.583Z,63.31
2019-01-05T02:12:08.935Z,63.33
2019-01-05T02:15:08.953Z,63.29
2019-01-05T02:18:16.495Z,63.30
2019-01-05T02:21:23.929Z,63.32
2019-01-05T02:25:14.637Z,63.35
2019-01-05T02:29:09.039Z,63.42
2019-01-05T02:33:13.387Z,63.50
2019-01-05T02:37:05.381Z,63.46
2019-01-05T02:40:56.686Z,63.44
2019-01-05T02:44:46.087Z,63.48
2019-01-05T02:48:44.085Z,63.52
2019-01-05T02:52:34.793Z,63.54
2019-01-05T02:56:33.107Z,63.63
2019-01-05T03:00:19.365Z,63.62
2019-01-05T03:04:16.962Z,63.64
2019-01-05T03:08:22.392Z,63.66
2019-01-05T03:12:23.815Z,63.65
2019-01-05T03:16:10.083Z,63.66
2019-01-05T03:20:04.936Z,63.72
2019-01-05T03:23:43.052Z,63.80
2019-01-05T03:27:56.544Z,63.83
2019-01-05T03:32:13.685Z,63.83
2019-01-05T03:36:00.545Z,63.92
2019-01-05T03:40:26.745Z,64.00
2019-01-05T03:44:11.566Z,64.09
2019-01-05T03:47:53.827Z,64.10
2019-01-05T03:51:50.068Z,64.20
2019-01-05T03:55:58.593Z,64.24
2019-01-05T03:59:51.414Z,64.29
2019-01-05T04:03:35.818Z,64.38
2019-01-05T04:07:30.726Z,64.50
2019-01-05T04:11:53.945Z,64.59
2019-01-05T04:15:50.384Z,64.69
2019-01-05T04:20:10.224Z,64.69
2019-01-05T04:23:55.928Z,64.72
2019-01-05T04:28:08.365Z,64.75
2019-01-05T04:32:05.949Z,64.79
2019-01-05T04:36:11.132Z,64.83
2019-01-05T04:39:51.316Z,64.89
2019-01-05T04:44:03.488Z,64.90
2019-01-05T04:48:04.684Z,64.96
2019-01-05T04:51:55.088Z,64.99
2019-01-05T04:55:41.068Z,65.08
2019-01-05T04:59:51.379Z,65.16
2019-01-05T05:03:33.820Z,65.16
2019-01-05T05:07:44.166Z,65.15
2019-01-05T05:11:45.991Z,65.13
2019-01-05T05:15:48.040Z,65.16
2019-01-05T05:19:36.646Z,65.21
2019-01-05T05:23:38.236Z,65.24
2019-01-05T05:27:12.005Z,65.33
2019-01-05T05:31:08.234Z,65.36
2019-01-05T05:35:05.139Z,65.39
2019-01-05T05:38:40.917Z,65.43
2019-01-05T05:42:21.330Z,65.44
2019-01-05T05:46:12.562Z,65.44
2019-01-05T05:50:06.427Z,65.46
2019-01-05T05:53:55.541Z,65.48
2019-01-05T05:57:37.504Z,65.52
2019-01-05T06:02:06.831Z,65.56
2019-01-05T06:06:23.614Z,65.60
2019-01-05T06:10:30.580Z,65.56
2019-01-05T06:14:29.150Z,65.59
2019-01-05T06:18:14.623Z,65.57
2019-01-05T06:22:34.250Z,65.54
2019-01-05T06:26:54.556Z,65.65
2019-01-05T06:30:43.589Z,65.72
2019-01-05T06:34:34.857Z,65.70
2019-01-05T06:38:40.869Z,65.68
2019-01-05T06:42:56.086Z,65.74
2019-01-05T06:47:17.977Z,65.79
2019-01-05T06:50:50.656Z,65.83
2019-01-05T06:54:37.737Z,65.87
2019-01-05T06:58:35.919Z,65.97
2019-01-05T07:02:53.048Z,66.09
2019-01-05T07:06:47.421Z,66.15
2019-01-05T07:10:56.693Z,66.18
2019-01-05T07:14:42.469Z,66.23
2019-01-05T07:18:28.803Z,66.29
2019-01-05T07:22:40.255Z,66.29
2019-01-05T07:26:42.954Z,66.34
2019-01-05T07:30:33.364Z,66.44
2019-01-05T07:34:21.549Z,66.43
2019-01-05T07:38:39.350Z,66.40
2019-01-05T07:42:32.663Z,66.49
2019-01-05T07:46:30.887Z,66.58
2019-01-05T07:50:41.303Z,66.63
2019-01-05T07:54:55.166Z,66.73
2019-01-05T07:58:42.088Z,66.92
2019-01-05T08:02:36.177Z,67.01
2019-01-05T08:06:25.129Z,67.13
2019-01-05T08:10:02.072Z,67.16
2019-01-05T08:13:38.116Z,67.20
2019-01-05T08:17:19.009Z,67.23
2019-01-05T08:21:02.728Z,67.24
2019-01-05T08:25:02.375Z,67.23
2019-01-05T08:29:00.417Z,67.15
2019-01-05T08:32:55.965Z,67.37
2019-01-05T08:36:54.707Z,67.43
2019-01-05T08:40:42.951Z,67.59
2019-01-05T08:44:29.818Z,67.58
2019-01-05T08:48:14.874Z,67.60
2019-01-05T08:52:29.678Z,67.59
2019-01-05T08:56:32.049Z,67.60
2019-01-05T09:01:03.785Z,67.62
2019-01-05T09:05:26.536Z,67.63
2019-01-05T09:09:17.729Z,67.52
2019-01-05T09:13:22.497Z,67.55
2019-01-05T09:17:26.593Z,67.55
2019-01-05T09:21:16.545Z,67.63
2019-01-05T09:25:27.359Z,67.57
2019-01-05T09:29:31.876Z,67.57
2019-01-05T09:33:21.242Z,67.61
2019-01-05T09:37:13.747Z,67.64
2019-01-05T09:41:08.409Z,67.58
2019-01-05T09:45:15.922Z,67.59
2019-01-05T09:49:18.876Z,67.62
2019-01-05T09:53:26.160Z,67.64
2019-01-05T09:57:33.779Z,67.64
2019-01-05T10:01:46.172Z,67.60
2019-01-05T10:05:35.600Z,67.59
2019-01-05T10:09:35.347Z,67.59
2019-01-05T10:13:23.384Z,67.59
2019-01-05T10:17:07.043Z,67.61
2019-01-05T10:21:21.320Z,67.65
2019-01-05T10:25:43.309Z,67.64
2019-01-05T10:29:20.403Z,67.57
2019-01-05T10:32:52.897Z,67.52
2019-01-05T10:37:17.185Z,67.54
2019-01-05T10:41:33.410Z,67.63
2019-01-05T10:45:23.339Z,67.65
2019-01-05T10:49:12.224Z,67.64
2019-01-05T10:53:08.918Z,67.67
2019-01-05T10:57:21.726Z,67.70
2019-01-05T11:00:58.339Z,67.78
2019-01-05T11:04:46.506Z,67.77
2019-01-05T11:08:50.587Z,67.86
2019-01-05T11:13:02.758Z,67.92
2019-01-05T11:16:53.216Z,67.92
2019-01-05T11:20:54.412Z,67.97
2019-01-05T11:24:32.832Z,68.01
2019-01-05T11:28:25.162Z,67.97
2019-01-05T11:32:16.798Z,68.01
2019-01-05T11:36:05.008Z,68.01
2019-01-05T11:40:15.913Z,68.08
2019-01-05T11:44:02.603Z,68.06
2019-01-05T11:47:59.079Z,68.09
2019-01-05T11:51:46.441Z,68.06
2019-01-05T11:55:51.794Z,68.00
2019-01-05T11:59:51.265Z,67.98
2019-01-05T12:03:36.292Z,68.01
2019-01-05T12:07:46.279Z,68.01
2019-01-05T12:11:55.505Z,68.12
2019-01-05T12:16:13.218Z,68.16
2019-01-05T12:20:34.676Z,68.23
2019-01-05T12:24:36.020Z,68.21
2019-01-05T12:28:35.907Z,68.22
2019-01-05T12:32:18.333Z,68.28
2019-01-05T12:36:04.616Z,68.26
2019-01-05T12:39:57.504Z,68.25
2019-01-05T12:43:40.184Z,68.33
2019-01-05T12:47:30.845Z,68.32
2019-01-05T12:51:33.823Z,68.37
2019-01-05T12:55:16.843Z,68.41
2019-01-05T12:59:07.739Z,68.43
2019-01-05T13:03:06.851Z,68.49
2019-01-05T13:06:57.112Z,68.57
2019-01-05T13:11:01.590Z,68.57
2019-01-05T13:14:33.560Z,68.61
2019-01-05T13:18:19.817Z,68.57
2019-01-05T13:21:57.772Z,68.61
2019-01-05T13:25:57.877Z,68.65
2019-01-05T13:29:49.203Z,68.73
2019-01-05T13:33:55.546Z,68.66
2019-01-05T13:38:21.492Z,68.62
2019-01-05T13:42:23.718Z,68.64
2019-01-05T13:46:18.203Z,68.73
2019-01-05T13:50:07.841Z,68.70
2019-01-05T13:53:16.439Z,68.71
2019-01-05T13:56:08.510Z,68.71
2019-01-05T13:59:05.226Z,68.79
2019-01-05T14:02:04.655Z,68.85
2019-01-05T14:04:55.247Z,68.84
2019-01-05T14:08:06.011Z,68.78
2019-01-05T14:11:13.379Z,68.73
2019-01-05T14:14:04.241Z,68.71
2019-01-05T14:17:00.647Z,68.76
2019-01-05T14:19:49.727Z,68.80
2019-01-05T14:22:46.542Z,68.83
2019-01-05T14:25:37.159Z,68.84
2019-01-05T14:28:29.161Z,68.82
2019-01-05T14:31:20.754Z,68.82
2019-01-05T14:34:17.279Z,68.83
2019-01-05T14:37:09.413Z,68.78
2019-01-05T14:40:22.676Z,68.73
2019-01-05T14:43:13.655Z,68.72
2019-01-05T14:46:07.260Z,68.77
2019-01-05T14:49:13.601Z,68.75
2019-01-05T14:52:15.530Z,68.73
2019-01-05T14:55:09.215Z,68.75
2019-01-05T14:57:59.800Z,68.76
2019-01-05T15:00:52.788Z,68.83
2019-01-05T15:03:52.817Z,68.86
2019-01-05T15:06:55.703Z,68.87
2019-01-05T15:09:45.192Z,68.87
2019-01-05T15:12:38.006Z,68.95
2019-01-05T15:15:27.622Z,68.93
2019-01-05T15:18:30.683Z,68.87
2019-01-05T15:21:20.784Z,68.87
2019-01-05T15:24:25.092Z,68.91
2019-01-05T15:27:19.903Z,68.92
2019-01-05T15:30:02.721Z,68.92
2019-01-05T15:32:56.978Z,69.00
2019-01-05T15:35:54.828Z,69.02
2019-01-05T15:38:47.524Z,69.01
2019-01-05T15:41:40.013Z,68.98
2019-01-05T15:44:37.962Z,68.98
2019-01-05T15:47:32.046Z,68.96
2019-01-05T15:50:52.001Z,68.96
2019-01-05T15:53:47.191Z,68.95
2019-01-05T15:56:36.091Z,68.97
2019-01-05T15:59:39.156Z,69.00
2019-01-05T16:02:35.537Z,69.06
2019-01-05T16:05:34.314Z,69.06
2019-01-05T16:08:38.817Z,69.07
2019-01-05T16:11:39.747Z,69.11
2019-01-05T16:14:37.089Z,69.09
2019-01-05T16:17:50.995Z,69.12
2019-01-05T16:20:40.747Z,69.14
2019-01-05T16:23:35.469Z,69.14
2019-01-05T16:26:29.359Z,69.20
2019-01-05T16:29:42.361Z,69.27
2019-01-05T16:32:42.007Z,69.29
2019-01-05T16:35:40.544Z,69.23
2019-01-05T16:38:31.219Z,69.23
2019-01-05T16:41:47.436Z,69.25
2019-01-05T16:44:38.783Z,69.28
2019-01-05T16:47:35.848Z,69.26
2019-01-05T16:50:27.928Z,69.26
2019-01-05T16:53:21.919Z,69.28
2019-01-05T16:56:24.205Z,69.32
2019-01-05T16:59:12.744Z,69.37
2019-01-05T17:02:10.545Z,69.35
2019-01-05T17:05:11.647Z,69.39
2019-01-05T17:08:13.175Z,69.39
2019-01-05T17:11:10.057Z,69.38
2019-01-05T17:14:06.834Z,69.37
2019-01-05T17:16:59.386Z,69.36
2019-01-05T17:20:03.509Z,69.32
2019-01-05T17:23:00.330Z,69.34
2019-01-05T17:26:14.478Z,69.32
2019-01-05T17:29:24.234Z,69.28
2019-01-05T17:32:34.274Z,69.26
2019-01-05T17:35:26.808Z,69.27
2019-01-05T17:38:20.089Z,69.28
2019-01-05T17:41:19.091Z,69.26
2019-01-05T17:44:23.024Z,69.29
2019-01-05T17:47:19.987Z,69.34
2019-01-05T17:50:40.546Z,69.34
2019-01-05T17:53:47.439Z,69.37
2019-01-05T17:56:35.917Z,69.34
2019-01-05T17:59:45.109Z,69.35
2019-01-05T18:02:50.593Z,69.36
2019-01-05T18:05:43.001Z,69.36
2019-01-05T18:08:33.669Z,69.38
2019-01-05T18:11:24.748Z,69.37
2019-01-05T18:14:16.417Z,69.38
2019-01-05T18:17:09.960Z,69.40
2019-01-05T18:20:04.961Z,69.42
2019-01-05T18:23:12.928Z,69.43
2019-01-05T18:26:05.738Z,69.46
2019-01-05T18:28:57.042Z,69.52
2019-01-05T18:31:50.979Z,69.58
2019-01-05T18:34:39.621Z,69.66
2019-01-05T18:37:50.539Z,69.70
2019-01-05T18:40:39.892Z,69.73
2019-01-05T18:43:32.225Z,69.74
2019-01-05T18:46:31.044Z,69.78
2019-01-05T18:49:31.858Z,69.81
2019-01-05T18:52:25.443Z,69.81
2019-01-05T18:55:27.869Z,69.85
2019-01-05T18:58:17.451Z,69.85
2019-01-05T19:01:08.175Z,69.85
2019-01-05T19:04:12.186Z,69.85
2019-01-05T19:07:04.028Z,69.88
2019-01-05T19:10:06.545Z,69.89
2019-01-05T19:13:11.376Z,69.92
2019-01-05T19:16:02.636Z,69.89
2019-01-05T19:18:52.736Z,69.85
2019-01-05T19:22:04.456Z,69.86
2019-01-05T19:24:53.898Z,69.87
2019-01-05T19:27:56.517Z,69.85
2019-01-05T19:30:54.722Z,69.85
2019-01-05T19:33:44.133Z,69.83
2019-01-05T19:36:35.030Z,69.84
2019-01-05T19:39:26.250Z,69.82
2019-01-05T19:42:20.197Z,69.81
2019-01-05T19:45:09.766Z,69.81
2019-01-05T19:47:59.024Z,69.82
2019-01-05T19:50:48.463Z,69.85
2019-01-05T19:53:42.429Z,69.84
2019-01-05T19:56:31.723Z,69.83
2019-01-05T19:59:24.628Z,69.84
2019-01-05T20:02:27.639Z,69.84
2019-01-05T20:05:20.057Z,69.85
2019-01-05T20:08:09.660Z,69.83
2019-01-05T20:10:59.154Z,69.85
2019-01-05T20:14:08.091Z,69.87
2019-01-05T20:16:57.938Z,69.89
2019-01-05T20:19:58.108Z,69.89
2019-01-05T20:22:52.276Z,69.90
2019-01-05T20:26:02.901Z,69.87
2019-01-05T20:28:52.523Z,69.89
2019-01-05T20:31:58.281Z,69.87
2019-01-05T20:34:54.839Z,69.84
2019-01-05T20:37:52.808Z,69.87
2019-01-05T20:40:42.007Z,69.92
2019-01-05T20:43:32.801Z,69.94
2019-01-05T20:46:22.043Z,69.98
2019-01-05T20:49:27.878Z,69.98
2019-01-05T20:52:17.087Z,69.99
2019-01-05T20:55:20.114Z,69.97
2019-01-05T20:58:09.111Z,70.00
2019-01-05T21:00:58.856Z,70.05
2019-01-05T21:03:49.427Z,70.08
2019-01-05T21:06:38.914Z,70.08
2019-01-05T21:09:32.436Z,70.08
2019-01-05T21:12:21.869Z,70.09
2019-01-05T21:15:12.569Z,70.07
2019-01-05T21:18:06.552Z,70.03
2019-01-05T21:20:55.807Z,70.02
2019-01-05T21:23:45.768Z,70.04
2019-01-05T21:26:45.241Z,70.03
2019-01-05T21:29:36.121Z,70.03
2019-01-05T21:32:25.380Z,70.02
2019-01-05T21:35:34.562Z,70.01
2019-01-05T21:38:34.768Z,69.99
2019-01-05T21:41:23.935Z,69.96
2019-01-05T21:44:13.656Z,69.94
2019-01-05T21:47:03.518Z,69.90
2019-01-05T21:49:56.389Z,69.85
2019-01-05T21:53:02.307Z,69.84
2019-01-05T21:56:04.779Z,69.84
2019-01-05T21:59:01.559Z,69.80
2019-01-05T22:02:12.767Z,69.77
2019-01-05T22:05:03.450Z,69.81
2019-01-05T22:07:53.038Z,69.79
2019-01-05T22:10:42.372Z,69.80
2019-01-05T22:13:38.521Z,69.77
2019-01-05T22:16:32.505Z,69.76
2019-01-05T22:19:22.350Z,69.75
2019-01-05T22:22:15.875Z,69.73
2019-01-05T22:25:05.598Z,69.74
2019-01-05T22:27:56.033Z,69.71
2019-01-05T22:30:45.420Z,69.66
2019-01-05T22:33:47.953Z,69.63
2019-01-05T22:36:32.857Z,69.64
2019-01-05T22:39:42.886Z,69.71
2019-01-05T22:42:32.065Z,69.74
2019-01-05T22:45:21.406Z,69.70
2019-01-05T22:48:21.291Z,69.70
2019-01-05T22:51:17.799Z,69.68
2019-01-05T22:54:14.557Z,69.64
2019-01-05T22:57:10.061Z,69.67
2019-01-05T23:00:10.790Z,69.68
2019-01-05T23:03:04.429Z,69.71
2019-01-05T23:05:55.519Z,69.68
2019-01-05T23:09:00.993Z,69.65
2019-01-05T23:11:50.853Z,69.64
2019-01-05T23:14:51.104Z,69.57
2019-01-05T23:17:40.445Z,69.57
2019-01-05T23:20:29.457Z,69.55
2019-01-05T23:23:23.780Z,69.52
2019-01-05T23:26:12.735Z,69.53
2019-01-05T23:29:03.953Z,69.52
2019-01-05T23:31:53.955Z,69.50
2019-01-05T23:34:57.007Z,69.47
2019-01-05T23:38:05.908Z,69.46
2019-01-05T23:40:54.875Z,69.49
2019-01-05T23:43:54.735Z,69.47
2019-01-05T23:46:57.352Z,69.49
2019-01-05T23:49:49.223Z,69.52
2019-01-05T23:52:38.640Z,69.51
2019-01-05T23:55:38.896Z,69.52
2019-01-05T23:58:42.999Z,69.49
